createdAt,value
2022-10-21T00:00:43.070Z,6.75
2022-10-21T00:03:10.835Z,6.81
2022-10-21T00:05:38.627Z,6.79
2022-10-21T00:08:06.495Z,6.88
2022-10-21T00:13:08.758Z,6.80
2022-10-21T00:15:36.631Z,6.82
2022-10-21T00:18:05.089Z,6.90
2022-10-21T00:20:36.010Z,6.93
2022-10-21T00:23:06.644Z,7.09
2022-10-21T00:25:35.769Z,7.14
2022-10-21T00:28:03.527Z,6.95
2022-10-21T00:30:31.324Z,6.87
2022-10-21T00:33:02.218Z,6.70
2022-10-21T00:35:34.552Z,6.47
2022-10-21T00:38:02.402Z,6.55
2022-10-21T00:40:30.250Z,6.47
2022-10-21T00:42:59.605Z,6.48
2022-10-21T00:45:29.505Z,6.44
2022-10-21T00:48:02.444Z,6.36
2022-10-21T00:50:37.524Z,6.30
2022-10-21T00:53:11.953Z,6.37
2022-10-21T00:55:44.854Z,6.35
2022-10-21T00:58:14.683Z,6.49
2022-10-21T01:00:42.609Z,6.55
2022-10-21T01:03:10.569Z,6.65
2022-10-21T01:05:40.331Z,6.70
2022-10-21T01:08:08.162Z,6.79
2022-10-21T01:10:36.144Z,6.92
2022-10-21T01:13:16.177Z,7.03
2022-10-21T01:15:54.343Z,7.09
2022-10-21T01:18:29.142Z,7.01
2022-10-21T01:21:10.368Z,7.02
2022-10-21T01:24:17.621Z,7.05
2022-10-21T01:27:20.656Z,6.99
2022-10-21T01:30:12.255Z,6.85
2022-10-21T01:32:57.065Z,6.72
2022-10-21T01:35:29.636Z,6.71
2022-10-21T01:38:09.012Z,6.70
2022-10-21T01:40:42.652Z,6.67
2022-10-21T01:43:17.818Z,6.65
2022-10-21T01:45:50.170Z,6.61
2022-10-21T01:48:23.014Z,6.52
2022-10-21T01:50:56.242Z,6.44
2022-10-21T01:53:29.875Z,6.30
2022-10-21T01:55:59.786Z,6.24
2022-10-21T01:58:32.453Z,6.18
2022-10-21T02:01:02.746Z,6.17
2022-10-21T02:03:36.111Z,6.20
2022-10-21T02:06:04.409Z,6.17
2022-10-21T02:08:32.333Z,6.10
2022-10-21T02:11:03.441Z,6.14
2022-10-21T02:13:36.952Z,6.05
2022-10-21T02:16:09.965Z,6.13
2022-10-21T02:18:39.105Z,6.15
2022-10-21T02:21:11.303Z,6.25
2022-10-21T02:23:43.760Z,6.35
2022-10-21T02:26:12.029Z,6.37
2022-10-21T02:31:28.863Z,6.37
2022-10-21T02:34:08.826Z,6.37
2022-10-21T02:36:45.549Z,6.37
2022-10-21T02:39:20.599Z,6.31
2022-10-21T02:41:50.371Z,6.29
2022-10-21T02:44:18.289Z,6.37
2022-10-21T02:46:48.518Z,6.43
2022-10-21T02:49:17.642Z,6.43
2022-10-21T02:51:46.541Z,6.42
2022-10-21T02:54:14.796Z,6.38
2022-10-21T02:56:42.576Z,6.33
2022-10-21T02:59:10.477Z,6.37
2022-10-21T03:01:38.264Z,6.47
2022-10-21T03:04:06.271Z,6.51
2022-10-21T03:06:35.553Z,6.58
2022-10-21T03:09:03.480Z,6.68
2022-10-21T03:11:31.285Z,6.81
2022-10-21T03:13:59.109Z,6.81
2022-10-21T03:16:27.049Z,6.79
2022-10-21T03:18:54.824Z,6.69
2022-10-21T03:21:22.612Z,6.65
2022-10-21T03:23:51.817Z,6.71
2022-10-21T03:26:19.653Z,6.82
2022-10-21T03:28:47.417Z,6.89
2022-10-21T03:31:15.198Z,6.99
2022-10-21T03:33:42.956Z,6.95
2022-10-21T03:36:10.777Z,6.98
2022-10-21T03:38:38.540Z,6.89
2022-10-21T03:41:07.764Z,6.65
2022-10-21T03:43:35.537Z,6.52
2022-10-21T03:46:03.308Z,6.42
2022-10-21T03:48:31.056Z,6.34
2022-10-21T03:50:58.926Z,6.25
2022-10-21T03:53:42.180Z,6.27
2022-10-21T03:56:12.729Z,6.33
2022-10-21T03:58:40.576Z,6.37
2022-10-21T04:01:11.928Z,6.36
2022-10-21T04:03:40.134Z,6.47
2022-10-21T04:06:08.007Z,6.52
2022-10-21T04:08:35.826Z,6.46
2022-10-21T04:11:03.720Z,6.38
2022-10-21T04:13:32.930Z,6.40
2022-10-21T04:16:01.931Z,6.44
2022-10-21T04:18:29.765Z,6.52
2022-10-21T04:20:57.683Z,6.54
2022-10-21T04:23:25.578Z,6.56
2022-10-21T04:25:53.359Z,6.44
2022-10-21T04:28:21.226Z,6.48
2022-10-21T04:30:51.778Z,6.51
2022-10-21T04:33:19.656Z,6.52
2022-10-21T04:35:47.506Z,6.73
2022-10-21T04:38:15.596Z,6.90
2022-10-21T04:40:43.592Z,6.88
2022-10-21T04:43:11.432Z,7.06
2022-10-21T04:45:39.739Z,7.25
2022-10-21T04:48:09.214Z,7.43
2022-10-21T04:50:37.040Z,7.57
2022-10-21T04:53:04.869Z,7.52
2022-10-21T04:55:32.670Z,7.41
2022-10-21T04:58:00.589Z,7.48
2022-10-21T05:00:28.414Z,7.58
2022-10-21T05:02:56.381Z,7.65
2022-10-21T05:05:25.559Z,7.58
2022-10-21T05:07:53.425Z,7.61
2022-10-21T05:10:22.393Z,7.74
2022-10-21T05:12:50.232Z,7.73
2022-10-21T05:15:18.253Z,7.56
2022-10-21T05:17:46.029Z,7.84
2022-10-21T05:20:14.057Z,7.87
2022-10-21T05:22:43.197Z,7.99
2022-10-21T05:25:11.178Z,8.04
2022-10-21T05:27:39.076Z,8.21
2022-10-21T05:30:08.051Z,8.43
2022-10-21T05:32:35.977Z,8.56
2022-10-21T05:35:04.104Z,8.58
2022-10-21T05:37:31.914Z,8.51
2022-10-21T05:40:01.076Z,8.27
2022-10-21T05:42:28.874Z,8.11
2022-10-21T05:44:56.686Z,8.05
2022-10-21T05:47:24.782Z,7.99
2022-10-21T05:49:52.932Z,8.00
2022-10-21T05:52:20.773Z,8.05
2022-10-21T05:54:48.598Z,8.12
2022-10-21T05:57:17.768Z,8.10
2022-10-21T05:59:45.576Z,8.07
2022-10-21T06:02:13.398Z,8.14
2022-10-21T06:04:41.291Z,8.34
2022-10-21T06:07:09.207Z,8.40
2022-10-21T06:09:37.733Z,8.44
2022-10-21T06:12:06.669Z,8.46
2022-10-21T06:14:36.601Z,8.51
2022-10-21T06:17:04.557Z,8.62
2022-10-21T06:19:32.602Z,8.65
2022-10-21T06:22:00.472Z,8.73
2022-10-21T06:24:29.831Z,8.87
2022-10-21T06:26:57.662Z,9.00
2022-10-21T06:29:25.606Z,9.06
2022-10-21T06:31:54.793Z,9.14
2022-10-21T06:34:22.781Z,9.27
2022-10-21T06:36:50.537Z,9.34
2022-10-21T06:39:18.329Z,9.43
2022-10-21T06:41:46.194Z,9.47
2022-10-21T06:44:27.101Z,9.46
2022-10-21T06:46:56.259Z,9.47
2022-10-21T06:49:24.078Z,9.51
2022-10-21T06:51:52.132Z,9.61
2022-10-21T06:54:20.022Z,9.64
2022-10-21T06:56:47.832Z,9.66
2022-10-21T06:59:15.689Z,9.58
2022-10-21T07:02:00.532Z,9.56
2022-10-21T07:04:30.603Z,9.57
2022-10-21T07:06:58.772Z,9.68
2022-10-21T07:09:26.604Z,9.70
2022-10-21T07:11:54.626Z,9.75
2022-10-21T07:14:22.506Z,9.85
2022-10-21T07:16:51.446Z,9.91
2022-10-21T07:19:19.249Z,10.00
2022-10-21T07:21:49.146Z,10.14
2022-10-21T07:24:22.130Z,10.25
2022-10-21T07:26:50.875Z,10.35
2022-10-21T07:29:19.195Z,10.43
2022-10-21T07:31:46.986Z,10.50
2022-10-21T07:34:14.835Z,10.53
2022-10-21T07:36:47.824Z,10.52
2022-10-21T07:39:18.405Z,10.59
2022-10-21T07:41:48.334Z,10.51
2022-10-21T07:44:16.473Z,10.67
2022-10-21T07:46:45.999Z,10.66
2022-10-21T07:49:14.782Z,10.83
2022-10-21T07:51:45.199Z,10.92
2022-10-21T07:54:13.689Z,11.08
2022-10-21T07:56:44.960Z,11.29
2022-10-21T07:59:14.305Z,11.35
2022-10-21T08:01:44.353Z,11.35
2022-10-21T08:04:13.921Z,11.33
2022-10-21T08:06:42.274Z,11.29
2022-10-21T08:09:10.370Z,11.18
2022-10-21T08:11:39.035Z,11.17
2022-10-21T08:14:10.818Z,11.13
2022-10-21T08:16:39.343Z,11.09
2022-10-21T08:19:08.206Z,11.17
2022-10-21T08:21:37.912Z,11.25
2022-10-21T08:24:06.211Z,11.32
2022-10-21T08:26:34.065Z,11.37
2022-10-21T08:29:03.320Z,11.44
2022-10-21T08:31:32.732Z,11.51
2022-10-21T08:34:00.980Z,11.53
2022-10-21T08:36:28.794Z,11.54
2022-10-21T08:38:56.651Z,11.61
2022-10-21T08:41:52.292Z,11.75
2022-10-21T08:44:36.811Z,11.80
2022-10-21T08:47:14.551Z,11.90
2022-10-21T08:49:51.747Z,12.09
2022-10-21T08:52:24.054Z,12.27
2022-10-21T08:54:56.333Z,12.49
2022-10-21T08:57:24.375Z,12.59
2022-10-21T08:59:52.265Z,12.69
2022-10-21T09:02:30.816Z,12.77
2022-10-21T09:05:19.608Z,12.87
2022-10-21T09:07:57.192Z,13.02
2022-10-21T09:10:39.047Z,13.12
2022-10-21T09:13:14.394Z,13.22
2022-10-21T09:15:52.464Z,13.29
2022-10-21T09:18:33.816Z,13.30
2022-10-21T09:21:10.522Z,13.23
2022-10-21T09:23:53.077Z,13.08
2022-10-21T09:26:34.383Z,13.07
2022-10-21T09:29:09.415Z,13.03
2022-10-21T09:31:37.473Z,12.99
2022-10-21T09:34:17.668Z,12.97
2022-10-21T09:36:48.881Z,12.95
2022-10-21T09:39:22.587Z,12.94
2022-10-21T09:41:58.264Z,12.94
2022-10-21T09:44:27.960Z,12.97
2022-10-21T09:46:55.808Z,12.98
2022-10-21T09:52:20.795Z,12.88
2022-10-21T09:54:49.546Z,12.89
2022-10-21T09:57:23.390Z,12.88
2022-10-21T09:59:56.564Z,12.84
2022-10-21T10:02:31.262Z,12.86
2022-10-21T10:05:00.484Z,12.89
2022-10-21T10:07:33.460Z,12.87
2022-10-21T10:10:01.484Z,13.00
2022-10-21T10:12:30.657Z,13.03
2022-10-21T10:15:26.930Z,12.98
2022-10-21T10:17:58.317Z,13.01
2022-10-21T10:20:27.897Z,13.00
2022-10-21T10:23:10.319Z,12.96
2022-10-21T10:25:40.204Z,12.99
2022-10-21T10:28:20.700Z,12.98
2022-10-21T10:30:50.748Z,12.99
2022-10-21T10:33:21.627Z,13.00
2022-10-21T10:35:52.940Z,12.94
2022-10-21T10:38:24.726Z,12.89
2022-10-21T10:40:56.339Z,12.83
2022-10-21T10:43:30.454Z,12.79
2022-10-21T10:46:00.693Z,12.80
2022-10-21T10:48:36.624Z,12.83
2022-10-21T10:51:09.293Z,12.88
2022-10-21T10:53:38.559Z,12.93
2022-10-21T10:56:20.637Z,12.90
2022-10-21T10:58:54.609Z,12.97
2022-10-21T11:01:28.913Z,12.97
2022-10-21T11:04:00.712Z,13.00
2022-10-21T11:06:36.324Z,12.96
2022-10-21T11:09:07.724Z,12.97
2022-10-21T11:11:38.213Z,12.96
2022-10-21T11:14:15.320Z,12.89
2022-10-21T11:17:00.527Z,12.89
2022-10-21T11:19:35.640Z,12.88
2022-10-21T11:22:13.729Z,12.88
2022-10-21T11:24:55.287Z,12.91
2022-10-21T11:27:34.715Z,12.89
2022-10-21T11:30:10.515Z,12.99
2022-10-21T11:33:03.533Z,13.02
2022-10-21T11:35:55.423Z,13.03
2022-10-21T11:38:41.784Z,13.04
2022-10-21T11:41:25.562Z,13.02
2022-10-21T11:44:05.907Z,13.06
2022-10-21T11:46:51.752Z,13.11
2022-10-21T11:49:37.182Z,13.10
2022-10-21T11:52:15.147Z,13.17
2022-10-21T11:55:08.829Z,13.20
2022-10-21T11:57:46.112Z,13.22
2022-10-21T12:00:18.942Z,13.26
2022-10-21T12:02:55.196Z,13.32
2022-10-21T12:05:31.482Z,13.44
2022-10-21T12:08:12.983Z,13.54
2022-10-21T12:10:48.207Z,13.59
2022-10-21T12:13:22.783Z,13.54
2022-10-21T12:15:55.034Z,13.57
2022-10-21T12:18:24.804Z,13.50
2022-10-21T12:20:54.319Z,13.47
2022-10-21T12:23:24.833Z,13.43
2022-10-21T12:26:14.080Z,13.40
2022-10-21T12:28:48.470Z,13.40
2022-10-21T12:31:30.347Z,13.37
2022-10-21T12:33:59.022Z,13.36
2022-10-21T12:36:49.407Z,13.35
2022-10-21T12:39:38.887Z,13.36
2022-10-21T12:42:13.698Z,13.39
2022-10-21T12:44:47.398Z,13.36
2022-10-21T12:47:29.545Z,13.34
2022-10-21T12:50:23.996Z,13.30
2022-10-21T12:53:07.780Z,13.29
2022-10-21T12:55:41.115Z,13.29
2022-10-21T12:58:23.365Z,13.26
2022-10-21T13:00:54.691Z,13.19
2022-10-21T13:03:23.686Z,13.17
2022-10-21T13:06:04.095Z,13.15
2022-10-21T13:08:40.472Z,13.11
2022-10-21T13:11:22.789Z,13.03
2022-10-21T13:14:26.571Z,13.06
2022-10-21T13:16:54.356Z,12.78
2022-10-21T13:19:35.525Z,13.00
2022-10-21T13:22:11.240Z,12.98
2022-10-21T13:24:39.986Z,12.96
2022-10-21T13:27:27.581Z,12.94
2022-10-21T13:29:57.491Z,12.90
2022-10-21T13:32:33.404Z,12.90
2022-10-21T13:35:07.942Z,12.89
2022-10-21T13:37:38.811Z,12.89
2022-10-21T13:40:14.494Z,12.89
2022-10-21T13:42:45.637Z,12.88
2022-10-21T13:45:25.113Z,12.83
2022-10-21T13:48:07.620Z,12.81
2022-10-21T13:50:40.015Z,12.82
2022-10-21T13:53:24.716Z,12.84
2022-10-21T13:55:58.723Z,12.89
2022-10-21T13:58:27.593Z,12.90
2022-10-21T14:00:58.997Z,12.92
2022-10-21T14:03:28.121Z,12.91
2022-10-21T14:05:59.410Z,12.91
2022-10-21T14:08:31.874Z,12.92
2022-10-21T14:11:02.875Z,12.95
2022-10-21T14:13:35.700Z,12.93
2022-10-21T14:16:05.713Z,12.94
2022-10-21T14:18:37.416Z,12.95
2022-10-21T14:21:07.175Z,12.92
2022-10-21T14:23:35.589Z,12.92
2022-10-21T14:26:07.263Z,12.87
2022-10-21T14:28:36.343Z,12.87
2022-10-21T14:31:11.537Z,12.85
2022-10-21T14:33:43.264Z,12.83
2022-10-21T14:36:15.333Z,12.86
2022-10-21T14:38:52.548Z,12.76
2022-10-21T14:41:24.578Z,12.83
2022-10-21T14:43:54.452Z,12.81
2022-10-21T14:46:23.676Z,12.79
2022-10-21T14:48:55.439Z,12.77
2022-10-21T14:51:24.245Z,12.79
2022-10-21T14:53:56.565Z,12.78
2022-10-21T14:56:30.778Z,12.78
2022-10-21T14:59:00.718Z,12.77
2022-10-21T15:01:30.248Z,12.74
2022-10-21T15:04:00.137Z,12.71
2022-10-21T15:06:29.964Z,12.66
2022-10-21T15:09:06.307Z,12.63
2022-10-21T15:11:41.590Z,12.66
2022-10-21T15:14:20.628Z,12.63
2022-10-21T15:16:53.567Z,12.61
2022-10-21T15:19:27.584Z,12.60
2022-10-21T15:21:59.487Z,12.59
2022-10-21T15:24:36.396Z,12.55
2022-10-21T15:27:05.701Z,12.54
2022-10-21T15:29:38.814Z,12.52
2022-10-21T15:32:08.000Z,12.48
2022-10-21T15:34:35.865Z,12.48
2022-10-21T15:37:03.911Z,12.49
2022-10-21T15:39:31.654Z,12.48
2022-10-21T15:42:00.111Z,12.49
2022-10-21T15:44:30.045Z,12.39
2022-10-21T15:47:00.858Z,12.47
2022-10-21T15:49:33.883Z,12.46
2022-10-21T15:52:01.747Z,12.44
2022-10-21T15:54:29.539Z,12.45
2022-10-21T15:56:59.699Z,12.46
2022-10-21T15:59:29.341Z,12.47
2022-10-21T16:01:57.783Z,12.41
2022-10-21T16:04:26.179Z,12.45
2022-10-21T16:06:56.296Z,12.43
2022-10-21T16:09:26.716Z,12.42
2022-10-21T16:12:00.386Z,12.38
2022-10-21T16:14:30.222Z,12.36
2022-10-21T16:16:59.952Z,12.40
2022-10-21T16:19:28.206Z,12.40
2022-10-21T16:21:57.606Z,12.39
2022-10-21T16:24:25.663Z,12.36
2022-10-21T16:26:53.607Z,12.31
2022-10-21T16:29:23.975Z,12.33
2022-10-21T16:31:52.195Z,12.32
2022-10-21T16:34:20.299Z,12.30
2022-10-21T16:36:48.126Z,12.27
2022-10-21T16:39:19.623Z,12.22
2022-10-21T16:41:47.428Z,12.24
2022-10-21T16:44:15.732Z,12.24
2022-10-21T16:46:50.127Z,12.09
2022-10-21T16:49:23.341Z,12.24
2022-10-21T16:51:53.047Z,12.24
2022-10-21T16:54:23.728Z,12.27
2022-10-21T16:56:54.722Z,12.27
2022-10-21T16:59:23.445Z,12.27
2022-10-21T17:01:51.545Z,12.28
2022-10-21T17:04:19.381Z,12.32
2022-10-21T17:06:47.126Z,12.29
2022-10-21T17:09:15.052Z,12.35
2022-10-21T17:11:44.583Z,12.28
2022-10-21T17:14:16.172Z,12.35
2022-10-21T17:16:45.216Z,12.26
2022-10-21T17:19:13.474Z,12.30
2022-10-21T17:21:41.299Z,12.37
2022-10-21T17:24:10.179Z,12.37
2022-10-21T17:26:38.371Z,12.38
2022-10-21T17:29:07.657Z,12.38
2022-10-21T17:31:36.907Z,12.36
2022-10-21T17:34:07.345Z,12.31
2022-10-21T17:36:35.475Z,12.35
2022-10-21T17:39:03.574Z,12.36
2022-10-21T17:41:31.636Z,12.35
2022-10-21T17:44:01.735Z,12.33
2022-10-21T17:46:31.033Z,12.30
2022-10-21T17:48:59.401Z,12.32
2022-10-21T17:51:27.257Z,12.32
2022-10-21T17:53:55.785Z,12.32
2022-10-21T17:56:24.182Z,12.31
2022-10-21T17:58:53.015Z,12.30
2022-10-21T18:01:22.037Z,12.30
2022-10-21T18:03:51.574Z,12.30
2022-10-21T18:06:19.671Z,12.30
2022-10-21T18:08:48.013Z,12.31
2022-10-21T18:11:18.311Z,12.32
2022-10-21T18:13:47.827Z,12.33
2022-10-21T18:16:19.482Z,12.33
2022-10-21T18:18:48.600Z,12.34
2022-10-21T18:21:19.585Z,12.29
2022-10-21T18:23:49.949Z,12.34
2022-10-21T18:26:19.953Z,12.36
2022-10-21T18:28:50.591Z,12.36
2022-10-21T18:31:20.163Z,12.37
2022-10-21T18:33:48.313Z,12.21
2022-10-21T18:36:18.890Z,12.39
2022-10-21T18:38:46.742Z,12.41
2022-10-21T18:41:20.159Z,12.40
2022-10-21T18:43:49.937Z,12.40
2022-10-21T18:46:17.830Z,12.42
2022-10-21T18:48:45.724Z,12.42
2022-10-21T18:51:16.456Z,12.42
2022-10-21T18:53:48.586Z,12.42
2022-10-21T18:56:20.070Z,12.38
2022-10-21T18:58:48.157Z,12.43
2022-10-21T19:01:16.622Z,12.43
2022-10-21T19:03:44.866Z,12.43
2022-10-21T19:06:17.614Z,12.43
2022-10-21T19:08:46.992Z,12.43
2022-10-21T19:11:14.845Z,12.43
2022-10-21T19:13:42.648Z,12.42
2022-10-21T19:16:10.478Z,12.42
2022-10-21T19:18:38.425Z,12.40
2022-10-21T19:21:06.724Z,12.39
2022-10-21T19:23:34.704Z,12.37
2022-10-21T19:26:04.864Z,12.38
2022-10-21T19:28:33.032Z,12.38
2022-10-21T19:31:01.256Z,12.37
2022-10-21T19:33:29.296Z,12.34
2022-10-21T19:36:00.053Z,12.33
2022-10-21T19:38:43.189Z,12.34
2022-10-21T19:41:16.304Z,12.33
2022-10-21T19:43:44.385Z,12.21
2022-10-21T19:46:17.434Z,12.32
2022-10-21T19:48:48.057Z,12.30
2022-10-21T19:51:18.843Z,12.26
2022-10-21T19:53:47.901Z,12.22
2022-10-21T19:56:20.917Z,12.19
2022-10-21T19:58:52.059Z,12.10
2022-10-21T20:01:21.746Z,12.16
2022-10-21T20:03:51.121Z,12.19
2022-10-21T20:06:22.078Z,12.17
2022-10-21T20:08:50.193Z,12.17
2022-10-21T20:11:21.188Z,12.17
2022-10-21T20:13:50.241Z,12.09
2022-10-21T20:16:20.175Z,12.14
2022-10-21T20:18:47.965Z,12.17
2022-10-21T20:21:15.793Z,12.17
2022-10-21T20:23:43.585Z,12.16
2022-10-21T20:26:11.423Z,12.15
2022-10-21T20:28:43.361Z,12.14
2022-10-21T20:31:12.825Z,12.14
2022-10-21T20:33:43.337Z,12.15
2022-10-21T20:36:13.752Z,12.16
2022-10-21T20:38:41.651Z,12.16
2022-10-21T20:41:12.144Z,12.08
2022-10-21T20:43:42.398Z,12.15
2022-10-21T20:46:13.598Z,12.13
2022-10-21T20:48:42.747Z,12.14
2022-10-21T20:51:12.237Z,12.15
2022-10-21T20:53:40.587Z,12.11
2022-10-21T20:56:08.944Z,12.11
2022-10-21T20:58:37.821Z,12.11
2022-10-21T21:01:09.849Z,12.14
2022-10-21T21:03:40.820Z,12.11
2022-10-21T21:06:10.445Z,12.10
2022-10-21T21:08:48.557Z,12.09
2022-10-21T21:11:26.512Z,12.08
2022-10-21T21:13:54.268Z,12.08
2022-10-21T21:16:23.889Z,12.03
2022-10-21T21:18:55.190Z,11.98
2022-10-21T21:21:25.554Z,11.97
2022-10-21T21:23:53.970Z,11.95
2022-10-21T21:26:24.814Z,11.95
2022-10-21T21:28:53.104Z,11.94
2022-10-21T21:31:23.025Z,11.97
2022-10-21T21:33:51.148Z,11.95
2022-10-21T21:36:21.436Z,11.93
2022-10-21T21:38:51.571Z,11.90
2022-10-21T21:41:19.459Z,11.84
2022-10-21T21:43:48.852Z,11.89
2022-10-21T21:46:22.788Z,11.90
2022-10-21T21:48:55.234Z,11.91
2022-10-21T21:51:27.430Z,11.94
2022-10-21T21:53:55.870Z,11.96
2022-10-21T21:56:24.616Z,12.00
2022-10-21T21:58:55.018Z,12.04
2022-10-21T22:01:25.300Z,12.04
2022-10-21T22:03:54.070Z,12.01
2022-10-21T22:06:23.409Z,11.96
2022-10-21T22:08:52.702Z,11.93
2022-10-21T22:11:24.865Z,11.89
2022-10-21T22:13:53.382Z,11.92
2022-10-21T22:16:24.365Z,11.91
2022-10-21T22:18:52.515Z,11.90
2022-10-21T22:21:20.826Z,11.88
2022-10-21T22:23:49.889Z,11.87
2022-10-21T22:26:23.058Z,11.85
2022-10-21T22:28:50.905Z,11.80
2022-10-21T22:31:20.011Z,11.69
2022-10-21T22:33:48.015Z,11.70
2022-10-21T22:36:16.648Z,11.67
2022-10-21T22:38:44.635Z,11.62
2022-10-21T22:41:13.297Z,11.59
2022-10-21T22:43:43.700Z,11.56
2022-10-21T22:48:59.616Z,11.39
2022-10-21T22:51:27.543Z,11.41
2022-10-21T22:53:56.851Z,11.37
2022-10-21T22:56:25.274Z,11.34
2022-10-21T22:58:54.781Z,11.29
2022-10-21T23:01:24.015Z,11.22
2022-10-21T23:03:52.476Z,11.20
2022-10-21T23:06:20.632Z,11.18
2022-10-21T23:08:48.523Z,11.16
2022-10-21T23:11:16.753Z,11.12
2022-10-21T23:13:56.247Z,11.19
2022-10-21T23:16:33.515Z,11.20
2022-10-21T23:19:01.327Z,11.21
2022-10-21T23:21:29.371Z,11.18
2022-10-21T23:23:57.313Z,11.14
2022-10-21T23:26:25.244Z,11.10
2022-10-21T23:28:53.354Z,11.09
2022-10-21T23:31:21.451Z,11.05
2022-10-21T23:33:51.680Z,11.01
2022-10-21T23:36:19.762Z,10.96
2022-10-21T23:38:47.646Z,10.91
2022-10-21T23:41:15.629Z,10.86
2022-10-21T23:43:43.437Z,10.80
2022-10-21T23:46:11.342Z,10.72
2022-10-21T23:48:39.190Z,10.65
2022-10-21T23:51:08.541Z,10.53
2022-10-21T23:53:36.543Z,10.40
2022-10-21T23:56:04.432Z,10.18
2022-10-21T23:58:32.232Z,10.35
